Historyczne dane pomiarowe

Dodano dane terminowe – wersja testowa.

Dane z okresu 1951-2019

Wersja bazy: 1.34 [2019-03-16, lista zmian], aktualizacja planowana na 2019-04-15

Dane meteo z obszaru Polski uzyskane na podstawie danych udostępnionych przez Instytut Meteorologii i Gospodarki Wodnej – Państwowy Instytut Badawczy.

 

Wybierz Datę:    

       

TemperaturaWilgotnośćWiatrCiśnienieOpadyŚniegCzas trwania zjawisk
 Stacja t tx tn tng RH VA  wxwx mslp ppp RRR   cm mm wxwxwxwxwxwxwx
1970-10-10 16.3 23.0 12.9--- 1.3 1.0---- 0.0------------
1970-10-09 14.2 21.9 6.5--- 0.0 0.3---- 0.0------------
1970-10-08 12.9 21.7 8.0--- 0.0 0.3---- 0.0------------
1970-10-07 12.6 19.8 7.2--- 0.0 0.7---- 0.0------------
1970-10-06 11.5 16.4 8.8--- 4.7 0.7---- 0.0------------
1970-10-05 9.0 10.2 7.4--- 8.0 1.7---- 3.6------------
1970-10-04 7.9 12.4 6.0--- 7.3 0.7---- 0.9------------
1970-10-03 7.9 12.0 5.4--- 4.3 3.7---- 0.3------------
1970-10-02 10.0 12.2 6.9--- 8.0 1.7---- 9.2------------
1970-10-01 11.1 13.6 9.5--- 5.3 2.3---- 2.2------------
1970-09-30 10.9 17.2 3.5--- 2.7 1.0---- 5.5------------
1970-09-29 4.8 12.8 -2.5--- 0.0 0.0---- 0.0------------
1970-09-28 2.9 11.2 -0.2--- 0.0 0.3---- 0.0------------
1970-09-27 3.9 11.2 -0.2--- 5.0 0.3---- 0.0------------
1970-09-26 5.2 11.2 2.0--- 3.3 0.7---- 0.1------------
1970-09-25 6.8 11.6 4.6--- 5.7 2.0---- 0.7------------
1970-09-24 7.7 11.6 0.9--- 4.0 1.3---- 0.0------------
1970-09-23 7.1 12.8 2.6--- 4.0 1.0---- 0.7------------
1970-09-22 8.5 13.2 6.4--- 3.7 1.7---- 0.4------------
1970-09-21 12.4 17.2 6.5--- 6.7 1.7---- 3.7------------
1970-09-20 12.1 13.8 11.3--- 4.0 0.3---- 0.0------------
1970-09-19 12.5 16.6 11.0--- 6.3 0.3---- 0.0------------
1970-09-18 11.3 12.6 6.5--- 4.3 1.0---- 10.6------------
1970-09-17 11.6 15.6 10.0--- 6.0 0.7---- 0.0------------
1970-09-16 16.3 23.7 9.8--- 4.0 1.0---- 0.0------------
1970-09-15 16.7 25.3 9.8--- 0.3 1.0---- 0.0------------
1970-09-14 14.5 19.8 7.0--- 2.3 3.3---- 0.0------------
1970-09-13 12.5 18.6 8.5--- 5.3 0.7---- 5.7------------
1970-09-12 13.2 20.7 11.6--- 2.7 4.7---- 2.1------------
1970-09-11 20.5 27.3 14.2--- 1.0 0.7---- 0.2------------
1970-09-10 19.3 27.9 12.3--- 0.0 0.3---- 0.0------------
1970-09-09 17.0 23.7 14.5--- 1.3 2.7---- 0.0------------
1970-09-08 15.0 21.9 4.5--- 1.0 2.0---- 0.5------------
1970-09-07 10.0 14.8 8.0--- 2.0 2.7---- 0.0------------
1970-09-06 11.0 16.4 8.4--- 4.3 7.3---- 2.8------------
1970-09-05 12.9 17.6 11.4--- 6.0 7.7---- 10.6------------
1970-09-04 14.7 17.6 13.6--- 6.7 4.0---- 1.6------------
1970-09-03 15.2 20.7 6.4--- 2.0 1.0---- 1.6------------
1970-09-02 13.3 18.2 10.8--- 3.3 3.3---- 0.0------------
1970-09-01 16.8 23.8 9.6--- 1.3 0.3---- 3.2------------
1970-08-31 15.7 21.9 10.4--- 2.7 0.0---- 0.0------------
1970-08-30 15.4 21.5 13.5--- 4.7 2.3---- 0.7------------
1970-08-29 17.3 24.7 10.2--- 1.3 1.7---- 35.0------------
1970-08-28 16.2 23.5 8.8--- 3.3 0.3---- 0.0------------
1970-08-27 14.5 21.7 7.8--- 4.0 1.0---- 0.0------------
1970-08-26 13.7 19.8 11.3--- 3.7 1.0---- 0.2------------
1970-08-25 14.1 19.2 10.0--- 4.3 2.0---- 2.8------------
1970-08-24 14.7 20.5 13.5--- 5.3 1.3---- 0.2------------
1970-08-23 14.1 17.2 11.6--- 8.0 1.3---- 12.2------------
1970-08-22 17.5 22.3 12.0--- 4.7 2.7---- 2.0------------
1970-08-21 16.6 21.7 12.5--- 1.3 3.3---- 0.0------------
1970-08-20 17.4 23.7 9.4--- 0.0 2.7---- 0.0------------
1970-08-19 15.8 21.7 7.2--- 1.7 0.7---- 0.0------------
1970-08-18 13.3 19.8 11.4--- 5.3 2.7---- 0.2------------
1970-08-17 17.8 21.5 12.8--- 7.3 1.3---- 19.6------------
1970-08-16 16.5 22.7 8.5--- 2.3 0.3---- 0.0------------
1970-08-15 16.6 23.6 10.9--- 2.0 1.3---- 1.0------------
1970-08-14 16.9 23.9 7.6--- 0.3 0.7---- 0.0------------
1970-08-13 14.7 21.9 9.2--- 2.7 2.3---- 0.0------------
1970-08-12 13.5 17.2 11.0--- 5.7 4.0---- 0.0------------
1176.5 ms

 

Źródłem pochodzenia danych jest Instytut Meteorologii i Gospodarki Wodnej – Państwowy Instytut Badawczy. Dane Instytutu Meteorologii i Gospodarki Wodnej – Państwowego Instytutu Badawczego zostały przetworzone.

Dane źródłowe można odnaleźć na stronie https://dane.imgw.pl